Time;durP1;ratioP1;P1;durP2;ratioP2;P2;SDS_P1;SDS_P2;PMS_P1;PMS_P2;Temp;Humidity;BMP_temperature;BMP_pressure;BME280_temperature;BME280_humidity;BME280_pressure;Samples;Min_cycle;Max_cycle;Signal;HPM_P1;HPM_P2
2022/03/18 00:01:37;;;;;;;32.90;23.13;;;;;;;9.76;93.01;99739.84;4162094;28;20685;-87
2022/03/18 00:03:40;;;;;;;32.73;22.20;;;;;;;9.73;93.07;99733.91;4170776;28;21323;-87
2022/03/18 00:05:43;;;;;;;32.10;22.07;;;;;;;9.68;93.12;99733.22;4177592;28;20676;-86
2022/03/18 00:07:47;;;;;;;30.23;21.30;;;;;;;9.69;93.67;99729.72;4175728;28;20632;-86
2022/03/18 00:09:50;;;;;;;31.90;21.60;;;;;;;9.71;93.15;99733.97;4160319;28;20687;-87
2022/03/18 00:11:53;;;;;;;33.47;22.10;;;;;;;9.74;93.41;99727.78;4172074;28;21412;-87
2022/03/18 00:13:58;;;;;;;34.73;22.83;;;;;;;9.76;94.10;99731.16;4169836;28;20616;-87
2022/03/18 00:16:02;;;;;;;34.73;22.90;;;;;;;9.80;93.66;99735.34;4159793;28;21041;-87
2022/03/18 00:18:06;;;;;;;31.20;21.47;;;;;;;9.81;93.18;99731.84;4176726;28;20638;-86
2022/03/18 00:20:10;;;;;;;28.67;20.20;;;;;;;9.76;93.43;99733.75;4171177;28;20667;-86
2022/03/18 00:22:13;;;;;;;34.20;21.60;;;;;;;9.77;92.60;99738.06;4193131;28;20669;-86
2022/03/18 00:24:17;;;;;;;30.63;21.17;;;;;;;9.72;92.36;99732.19;4161604;28;20639;-87
2022/03/18 00:26:20;;;;;;;27.83;20.50;;;;;;;9.75;93.04;99739.91;4176468;28;20718;-86
2022/03/18 00:28:23;;;;;;;30.00;21.17;;;;;;;9.78;93.13;99735.41;4174405;28;22341;-87
2022/03/18 00:30:26;;;;;;;30.97;21.27;;;;;;;9.79;93.48;99734.50;4155376;28;20658;-87
2022/03/18 00:32:32;;;;;;;31.63;21.17;;;;;;;9.81;93.25;99739.66;4172600;28;21039;-87
2022/03/18 00:34:35;;;;;;;29.40;20.67;;;;;;;9.77;92.46;99738.06;4182375;28;20654;-86
2022/03/18 00:36:38;;;;;;;28.80;20.67;;;;;;;9.78;92.36;99731.97;4187065;28;21001;-86
2022/03/18 00:38:42;;;;;;;28.10;20.47;;;;;;;9.80;92.83;99733.56;4172233;28;20670;-87
2022/03/18 00:40:45;;;;;;;33.13;21.83;;;;;;;9.85;93.66;99731.66;4172192;28;20634;-86
2022/03/18 00:42:48;;;;;;;29.33;20.87;;;;;;;9.88;93.15;99734.16;4171460;28;20631;-87
2022/03/18 00:44:51;;;;;;;29.60;19.80;;;;;;;9.91;93.88;99740.09;4173572;28;21283;-87
2022/03/18 00:46:54;;;;;;;31.10;21.37;;;;;;;9.92;92.79;99736.56;4164210;28;20635;-86
2022/03/18 00:53:40;;;;;;;28.17;19.50;;;;;;;9.96;91.73;99747.75;4169744;28;20681;-87
2022/03/18 00:55:43;;;;;;;25.43;18.53;;;;;;;9.92;91.78;99747.00;4172159;28;20628;-86
2022/03/18 00:57:46;;;;;;;27.53;19.83;;;;;;;9.89;91.70;99744.50;4167970;28;20688;-87
2022/03/18 00:59:50;;;;;;;26.63;18.80;;;;;;;9.91;92.53;99745.28;4156382;28;20663;-87
2022/03/18 01:01:53;;;;;;;30.03;19.67;;;;;;;9.91;91.55;99744.47;4186060;28;20646;-86
2022/03/18 01:03:57;;;;;;;28.80;20.60;;;;;;;9.90;91.35;99738.38;4174647;28;21206;-86
2022/03/18 01:06:01;;;;;;;27.37;19.80;;;;;;;9.90;91.43;99745.34;4158791;28;20669;-86
2022/03/18 01:08:05;;;;;;;28.60;18.93;;;;;;;9.89;91.09;99747.13;4158722;28;20633;-87
2022/03/18 01:10:09;;;;;;;26.83;18.17;;;;;;;9.91;90.94;99750.50;4190066;28;20658;-87
2022/03/18 01:12:12;;;;;;;26.77;19.70;;;;;;;9.91;91.24;99750.50;4149549;28;20631;-86
2022/03/18 01:14:16;;;;;;;27.43;20.10;;;;;;;9.91;91.28;99740.09;4171677;28;20695;-86
2022/03/18 01:16:19;;;;;;;26.50;19.53;;;;;;;9.95;92.20;99746.03;4173458;28;21053;-86
2022/03/18 01:18:22;;;;;;;26.40;19.10;;;;;;;9.97;91.66;99750.31;4157782;28;20656;-87
2022/03/18 01:20:25;;;;;;;28.13;20.20;;;;;;;9.97;92.15;99752.06;4184717;28;20692;-87
2022/03/18 01:22:30;;;;;;;27.50;18.80;;;;;;;9.98;92.04;99757.22;4154127;28;20648;-86
2022/03/18 01:24:33;;;;;;;28.10;19.97;;;;;;;9.99;92.31;99752.84;4189090;28;20649;-87
2022/03/18 01:26:36;;;;;;;26.30;18.77;;;;;;;10.00;91.96;99749.34;4157720;28;20628;-87
2022/03/18 01:28:39;;;;;;;27.77;19.60;;;;;;;10.00;91.87;99749.34;4172946;28;20764;-86
2022/03/18 01:30:42;;;;;;;28.77;18.10;;;;;;;9.95;90.52;99756.47;4170877;28;21233;-87
2022/03/18 01:32:45;;;;;;;23.50;17.67;;;;;;;9.89;90.60;99754.06;4171751;28;20643;-87
2022/03/18 01:34:50;;;;;;;25.13;18.67;;;;;;;9.89;91.44;99756.69;4173332;28;20731;-87
2022/03/18 01:36:53;;;;;;;29.37;20.20;;;;;;;9.90;91.05;99753.16;4156844;28;20670;-87
2022/03/18 01:38:59;;;;;;;25.87;19.43;;;;;;;9.90;90.98;99751.41;4187080;28;21197;-87
2022/03/18 01:41:02;;;;;;;26.97;19.83;;;;;;;9.92;90.73;99756.56;4170677;28;20658;-86
2022/03/18 01:43:08;;;;;;;27.13;20.43;;;;;;;9.90;90.44;99761.81;4167378;28;20710;-87
2022/03/18 01:45:12;;;;;;;32.00;20.60;;;;;;;9.84;91.17;99756.84;4169547;28;20651;-87
2022/03/18 01:47:15;;;;;;;27.20;19.30;;;;;;;9.87;91.14;99767.16;4158246;28;20674;-86
2022/03/18 01:49:18;;;;;;;27.47;20.00;;;;;;;9.85;90.94;99766.38;4168807;28;20638;-87
2022/03/18 01:51:22;;;;;;;28.73;20.60;;;;;;;9.85;91.56;99758.56;4173113;28;21234;-86
2022/03/18 01:53:25;;;;;;;29.70;20.60;;;;;;;9.87;90.59;99761.09;4167337;28;22910;-86
2022/03/18 01:55:30;;;;;;;27.23;18.47;;;;;;;9.78;89.70;99758.00;4160392;28;20684;-86
2022/03/18 01:57:33;;;;;;;29.37;20.50;;;;;;;9.69;89.62;99761.81;4160318;28;21296;-86
2022/03/18 01:59:37;;;;;;;28.47;20.13;;;;;;;9.66;90.05;99753.28;4176179;28;21076;-86
2022/03/18 02:01:40;;;;;;;25.83;19.30;;;;;;;9.66;89.99;99759.31;4177604;28;20638;-86
2022/03/18 02:03:43;;;;;;;28.90;20.50;;;;;;;9.66;90.39;99759.31;4177309;28;21194;-86
2022/03/18 02:05:46;;;;;;;26.80;19.00;;;;;;;9.67;90.85;99762.78;4192710;28;20685;-86
2022/03/18 02:07:50;;;;;;;26.83;19.10;;;;;;;9.69;90.68;99755.75;4179426;28;20637;-86
2022/03/18 02:09:53;;;;;;;27.10;18.60;;;;;;;9.65;90.71;99760.25;4193477;28;20647;-86
2022/03/18 02:11:57;;;;;;;25.73;18.20;;;;;;;9.58;90.20;99763.13;4174058;28;21219;-87
2022/03/18 02:14:01;;;;;;;29.57;20.23;;;;;;;9.58;90.03;99763.13;4191777;28;20621;-87
2022/03/18 02:16:04;;;;;;;29.63;20.07;;;;;;;9.62;90.88;99768.19;4177634;28;20680;-86
2022/03/18 02:18:07;;;;;;;27.23;19.10;;;;;;;9.64;91.27;99768.13;4187705;28;20637;-86
2022/03/18 02:20:11;;;;;;;27.10;19.60;;;;;;;9.64;90.64;99763.75;4169375;28;20704;-86
2022/03/18 02:22:15;;;;;;;30.30;20.30;;;;;;;9.64;90.84;99768.97;4167729;28;21083;-86
2022/03/18 02:24:20;;;;;;;30.23;18.80;;;;;;;9.60;90.58;99762.16;4176196;28;20638;-86
2022/03/18 02:26:23;;;;;;;28.47;19.70;;;;;;;9.60;90.31;99764.75;4178853;28;20704;-86
2022/03/18 02:28:26;;;;;;;28.23;20.03;;;;;;;9.55;90.22;99768.47;4170475;28;22344;-86
2022/03/18 02:30:32;;;;;;;32.27;21.43;;;;;;;9.50;89.91;99779.06;4171176;28;21192;-86
2022/03/18 02:32:36;;;;;;;29.00;19.10;;;;;;;9.32;90.45;99781.50;4176315;28;20640;-86
2022/03/18 02:34:40;;;;;;;30.10;18.50;;;;;;;9.18;90.01;99785.47;4158509;28;20629;-86
2022/03/18 02:36:43;;;;;;;30.60;20.00;;;;;;;9.14;90.59;99769.13;4172096;28;20633;-87
2022/03/18 02:38:46;;;;;;;27.93;19.97;;;;;;;9.23;90.76;99778.34;4160011;28;21000;-86
2022/03/18 02:40:51;;;;;;;31.70;19.33;;;;;;;9.20;90.59;99774.13;4176693;28;20667;-87
2022/03/18 02:42:55;;;;;;;29.33;18.73;;;;;;;9.17;90.77;99779.44;4159895;28;20631;-86
2022/03/18 02:45:00;;;;;;;27.63;19.50;;;;;;;9.18;91.17;99769.88;4170465;28;20641;-86
2022/03/18 02:47:04;;;;;;;26.47;17.87;;;;;;;9.16;90.82;99777.72;4172893;28;21213;-86
2022/03/18 02:49:07;;;;;;;27.43;19.30;;;;;;;9.10;91.02;99772.75;4178951;28;20727;-86
2022/03/18 02:51:10;;;;;;;26.52;18.88;;;;;;;9.09;91.27;99771.03;4177567;28;20631;-86
2022/03/18 02:53:13;;;;;;;26.70;18.00;;;;;;;9.07;92.04;99780.66;4159853;28;20204;-87
2022/03/18 02:55:18;;;;;;;27.77;19.30;;;;;;;9.05;92.18;99785.06;4175573;28;21548;-86
2022/03/18 02:57:22;;;;;;;26.20;18.70;;;;;;;9.12;91.47;99790.91;4157632;28;21114;-87
2022/03/18 02:59:26;;;;;;;29.30;18.40;;;;;;;9.05;91.99;99779.88;4156678;28;21068;-86
2022/03/18 03:01:30;;;;;;;24.87;17.00;;;;;;;9.04;90.71;99783.38;4186888;28;21446;-86
2022/03/18 03:03:34;;;;;;;25.67;18.67;;;;;;;8.99;91.76;99793.09;4190345;28;20624;-86
2022/03/18 03:07:59;;;;;;;29.80;18.50;;;;;;;8.99;92.28;99794.81;4193656;28;20625;-87
2022/03/18 03:10:02;;;;;;;27.23;18.47;;;;;;;9.02;91.82;99793.00;4161835;28;20207;-86
2022/03/18 03:12:06;;;;;;;27.97;16.83;;;;;;;9.07;92.47;99792.81;4187325;28;20632;-86
2022/03/18 03:14:11;;;;;;;28.20;18.33;;;;;;;9.07;90.46;99798.88;4160741;28;20637;-87
2022/03/18 03:16:14;;;;;;;29.47;19.17;;;;;;;9.12;91.50;99801.31;4155986;28;20635;-86
2022/03/18 03:18:17;;;;;;;28.40;18.97;;;;;;;9.15;90.60;99796.00;4185636;28;20649;-87
2022/03/18 03:20:20;;;;;;;26.73;17.40;;;;;;;9.15;91.33;99807.25;4161742;28;20639;-86
2022/03/18 03:22:23;;;;;;;27.57;17.67;;;;;;;9.07;91.40;99819.69;4161004;28;20663;-86
2022/03/18 03:24:28;;;;;;;28.07;18.40;;;;;;;9.03;90.43;99812.88;4183538;28;20648;-86
2022/03/18 03:26:31;;;;;;;27.27;17.63;;;;;;;9.05;90.69;99818.03;4172573;28;20666;-87
2022/03/18 03:28:34;;;;;;;25.30;17.90;;;;;;;9.02;91.09;99816.41;4169662;28;20705;-86
2022/03/18 03:30:38;;;;;;;27.60;18.50;;;;;;;8.94;90.00;99813.22;4171943;28;20645;-86
2022/03/18 03:32:41;;;;;;;29.60;18.63;;;;;;;8.88;91.51;99825.56;4171862;28;21000;-86
2022/03/18 03:34:44;;;;;;;29.20;19.40;;;;;;;8.81;90.59;99823.22;4172389;28;20637;-86
2022/03/18 03:36:47;;;;;;;28.05;18.10;;;;;;;8.76;90.89;99827.75;4157710;28;21027;-87
2022/03/18 03:38:51;;;;;;;26.30;18.02;;;;;;;8.76;90.98;99838.16;4177536;28;20199;-86
2022/03/18 03:40:54;;;;;;;28.03;18.10;;;;;;;8.62;91.84;99822.16;4164567;28;20206;-86
2022/03/18 03:42:57;;;;;;;29.27;18.17;;;;;;;8.56;91.92;99823.19;4189564;28;20648;-86
2022/03/18 03:45:00;;;;;;;29.20;18.43;;;;;;;8.57;92.14;99831.88;4175623;28;20637;-86
2022/03/18 03:47:05;;;;;;;28.57;18.97;;;;;;;8.54;91.97;99829.38;4159195;28;20661;-86
2022/03/18 03:49:09;;;;;;;27.03;18.00;;;;;;;8.55;92.24;99828.44;4175820;28;20675;-86
2022/03/18 03:51:12;;;;;;;27.37;18.23;;;;;;;8.53;91.99;99825.06;4192910;28;21261;-86
2022/03/18 03:53:15;;;;;;;31.10;17.87;;;;;;;8.55;91.86;99826.72;4172246;28;20706;-87
2022/03/18 03:55:19;;;;;;;28.70;19.37;;;;;;;8.51;92.37;99832.06;4158899;28;20617;-86
2022/03/18 03:57:22;;;;;;;28.77;18.70;;;;;;;8.52;92.55;99834.63;4176078;28;21255;-86
2022/03/18 03:59:25;;;;;;;29.90;18.10;;;;;;;8.44;91.96;99832.31;4160717;28;20652;-86
2022/03/18 04:01:28;;;;;;;31.00;18.47;;;;;;;8.47;91.81;99833.03;4155406;28;20703;-86
2022/03/18 04:03:33;;;;;;;30.77;18.33;;;;;;;8.45;91.65;99829.66;4174959;28;21237;-88
2022/03/18 04:05:38;;;;;;;29.67;18.80;;;;;;;8.49;91.98;99837.31;4157953;28;20285;-87
2022/03/18 04:07:42;;;;;;;28.77;18.63;;;;;;;8.49;91.68;99846.84;4173044;28;20216;-86
2022/03/18 04:09:46;;;;;;;27.40;18.23;;;;;;;8.52;92.16;99838.94;4175495;28;20206;-86
2022/03/18 04:11:49;;;;;;;25.90;17.00;;;;;;;8.47;92.83;99843.44;4169400;28;20199;-87
2022/03/18 04:13:53;;;;;;;28.67;18.17;;;;;;;8.41;91.36;99841.03;4174479;28;20738;-87
2022/03/18 04:15:56;;;;;;;29.73;20.05;;;;;;;8.36;93.10;99850.75;4189222;28;20212;-86
2022/03/18 04:17:59;;;;;;;30.17;19.45;;;;;;;8.40;92.13;99844.53;4171247;28;20694;-87
2022/03/18 04:20:05;;;;;;;29.33;18.38;;;;;;;8.41;91.51;99832.41;4183542;28;20197;-87
2022/03/18 04:22:08;;;;;;;30.63;19.10;;;;;;;8.46;92.51;99837.41;4167206;28;20230;-86
2022/03/18 04:24:11;;;;;;;28.10;17.83;;;;;;;8.43;91.91;99854.00;4172188;28;20215;-87
2022/03/18 04:26:17;;;;;;;31.03;19.10;;;;;;;8.35;92.99;99854.22;4190571;28;20692;-87
2022/03/18 04:28:20;;;;;;;30.35;18.85;;;;;;;8.28;91.70;99850.09;4177569;28;20628;-86
2022/03/18 04:30:24;;;;;;;31.80;20.50;;;;;;;8.27;91.73;99853.63;4186807;28;20204;-86
2022/03/18 04:32:27;;;;;;;30.52;19.05;;;;;;;8.34;92.81;99855.13;4169841;28;20206;-87
2022/03/18 04:34:30;;;;;;;33.58;21.17;;;;;;;8.39;93.11;99857.56;4158958;28;20273;-86
2022/03/18 04:36:34;;;;;;;29.88;18.58;;;;;;;8.41;91.61;99859.25;4174139;28;20198;-86
2022/03/18 04:38:37;;;;;;;27.40;18.83;;;;;;;8.43;92.12;99861.78;4183239;28;20289;-87
2022/03/18 04:40:46;;;;;;;30.30;19.20;;;;;;;8.42;91.90;99873.94;4156497;28;20664;-86
2022/03/18 04:42:49;;;;;;;31.37;20.30;;;;;;;8.43;91.86;99870.44;4174175;28;20241;-87
2022/03/18 04:44:52;;;;;;;31.83;19.60;;;;;;;8.50;91.09;99878.00;4156673;28;21013;-87
2022/03/18 04:46:55;;;;;;;30.47;19.47;;;;;;;8.54;91.25;99873.56;4186417;28;20266;-86
2022/03/18 04:48:59;;;;;;;28.87;19.87;;;;;;;8.61;92.11;99881.09;4177387;28;20632;-86
2022/03/18 04:51:02;;;;;;;31.90;19.92;;;;;;;8.54;90.53;99879.59;4172278;28;20966;-86
2022/03/18 04:53:07;;;;;;;31.92;19.95;;;;;;;8.41;90.58;99881.78;4153993;28;20276;-86
2022/03/18 04:55:11;;;;;;;31.73;19.40;;;;;;;8.39;92.59;99883.56;4174153;28;20219;-86
2022/03/18 04:57:16;;;;;;;30.13;18.75;;;;;;;8.37;91.75;99882.78;4157568;28;20634;-86
2022/03/18 04:59:19;;;;;;;29.00;19.67;;;;;;;8.34;91.40;99881.09;4173148;28;20280;-86
2022/03/18 05:01:22;;;;;;;30.95;20.38;;;;;;;8.38;92.31;99879.28;4171192;28;20201;-87
2022/03/18 05:03:26;;;;;;;29.58;19.17;;;;;;;8.42;92.45;99886.06;4172721;28;20202;-86
2022/03/18 05:05:29;;;;;;;30.00;19.88;;;;;;;8.42;91.92;99892.16;4172651;28;20294;-86
2022/03/18 05:07:33;;;;;;;30.35;20.00;;;;;;;8.46;91.17;99891.13;4181723;28;20224;-86
2022/03/18 05:09:37;;;;;;;31.13;19.67;;;;;;;8.49;90.47;99899.72;4172548;28;20206;-87
2022/03/18 05:11:40;;;;;;;28.47;18.90;;;;;;;8.49;90.92;99899.72;4183658;28;20643;-87
2022/03/18 05:13:44;;;;;;;32.93;20.60;;;;;;;8.58;91.38;99906.34;4187136;28;21276;-87
2022/03/18 05:15:47;;;;;;;30.70;20.30;;;;;;;8.68;91.22;99902.56;4170619;28;20640;-87
2022/03/18 05:17:54;;;;;;;32.90;21.00;;;;;;;8.68;90.91;99911.22;4177057;28;21163;-87
2022/03/18 05:19:57;;;;;;;32.63;20.40;;;;;;;8.67;91.19;99916.47;4174067;28;20637;-86
2022/03/18 05:22:01;;;;;;;30.57;19.03;;;;;;;8.75;90.50;99911.88;4172784;28;20668;-87
2022/03/18 05:24:06;;;;;;;28.30;19.30;;;;;;;8.77;90.13;99917.88;4171429;28;20632;-86
2022/03/18 05:26:10;;;;;;;33.03;19.40;;;;;;;8.80;90.52;99923.84;4172536;28;20635;-86
2022/03/18 05:28:14;;;;;;;31.63;20.47;;;;;;;8.82;89.55;99926.38;4162628;28;21342;-87
2022/03/18 05:30:18;;;;;;;29.93;19.60;;;;;;;8.80;89.36;99929.03;4171482;28;20628;-87
2022/03/18 05:32:21;;;;;;;32.05;20.10;;;;;;;8.81;89.85;99929.88;4171477;28;20625;-87
2022/03/18 05:34:24;;;;;;;34.00;21.30;;;;;;;8.82;89.83;99921.19;4157348;28;20210;-87
2022/03/18 05:36:27;;;;;;;32.38;20.00;;;;;;;8.84;88.72;99934.97;4176973;28;20732;-86
2022/03/18 05:38:30;;;;;;;31.90;21.00;;;;;;;8.80;88.62;99931.63;4162887;28;20205;-87
2022/03/18 05:40:33;;;;;;;32.05;20.42;;;;;;;8.78;90.11;99933.44;4173605;28;20636;-87
2022/03/18 05:42:38;;;;;;;29.83;19.17;;;;;;;8.74;90.16;99933.59;4174418;28;20631;-87
2022/03/18 05:44:41;;;;;;;32.28;20.70;;;;;;;8.67;89.51;99939.88;4168299;28;20203;-86
2022/03/18 05:46:44;;;;;;;32.78;21.50;;;;;;;8.63;90.34;99931.31;4172362;28;20215;-86
2022/03/18 05:48:48;;;;;;;35.28;21.40;;;;;;;8.59;89.73;99934.06;4175105;28;20233;-87
2022/03/18 05:50:52;;;;;;;33.20;20.93;;;;;;;8.66;90.87;99940.75;4176445;28;20680;-87
2022/03/18 05:52:55;;;;;;;31.63;20.60;;;;;;;8.68;90.60;99941.59;4177584;28;20633;-84
2022/03/18 05:54:59;;;;;;;31.27;20.25;;;;;;;8.73;90.10;99944.88;4179350;28;20645;-84
2022/03/18 05:57:02;;;;;;;34.47;21.27;;;;;;;8.76;90.27;99947.38;4159763;28;20199;-85
2022/03/18 05:59:08;;;;;;;36.40;22.03;;;;;;;8.67;90.26;99939.88;4174191;28;21118;-84
2022/03/18 06:01:12;;;;;;;33.45;22.10;;;;;;;8.68;89.56;99949.38;4188533;28;20644;-84
2022/03/18 06:03:15;;;;;;;32.67;21.53;;;;;;;8.72;90.58;99943.16;4192936;28;20208;-85
2022/03/18 06:05:18;;;;;;;33.20;21.10;;;;;;;8.74;89.36;99950.03;4181281;28;20703;-84
2022/03/18 06:07:22;;;;;;;34.58;22.08;;;;;;;8.74;89.47;99951.78;4177353;28;20700;-84
2022/03/18 06:11:59;;;;;;;35.77;21.83;;;;;;;8.66;89.96;99964.16;4141758;28;20646;-84
2022/03/18 06:14:03;;;;;;;36.67;22.67;;;;;;;8.68;90.07;99955.44;4109990;28;20638;-85
2022/03/18 06:16:08;;;;;;;37.73;22.37;;;;;;;8.72;89.93;99963.97;4134095;28;20630;-84
2022/03/18 06:18:15;;;;;;;37.83;22.23;;;;;;;8.80;89.11;99960.25;4178973;28;21302;-85
2022/03/18 06:20:18;;;;;;;36.97;23.52;;;;;;;8.85;89.69;99963.56;4161641;28;20639;-83
2022/03/18 06:22:21;;;;;;;43.33;23.47;;;;;;;8.90;89.04;99976.41;4179134;28;20280;-86
2022/03/18 06:24:25;;;;;;;40.13;23.57;;;;;;;8.92;89.47;99966.84;4178591;28;21261;-86
2022/03/18 06:26:31;;;;;;;39.65;23.05;;;;;;;8.89;87.96;99975.56;4180355;28;21005;-86
2022/03/18 06:28:35;;;;;;;35.37;23.07;;;;;;;8.89;89.12;99975.56;4172393;28;20289;-86
2022/03/18 06:30:38;;;;;;;40.20;24.60;;;;;;;8.94;89.17;99977.13;4159555;28;20672;-83
2022/03/18 06:32:42;;;;;;;41.47;24.00;;;;;;;8.91;89.43;99980.72;4179634;28;20627;-83
2022/03/18 06:34:45;;;;;;;32.83;21.50;;;;;;;8.87;88.20;99986.91;4175400;28;20638;-83
2022/03/18 06:36:49;;;;;;;34.97;23.23;;;;;;;8.93;88.71;99990.19;4180839;28;20210;-83
2022/03/18 06:38:53;;;;;;;38.00;23.30;;;;;;;8.97;89.21;99987.41;4189472;28;20734;-83
2022/03/18 06:40:56;;;;;;;42.75;25.73;;;;;;;8.93;88.07;99982.41;4169709;28;20242;-83
2022/03/18 06:42:59;;;;;;;37.20;23.60;;;;;;;9.01;88.88;99990.81;4157393;28;20208;-84
2022/03/18 06:45:02;;;;;;;40.70;25.10;;;;;;;9.02;87.63;99993.34;4163068;28;20630;-84
2022/03/18 06:47:05;;;;;;;39.60;23.93;;;;;;;9.03;87.33;99999.41;4182200;28;20632;-84
2022/03/18 06:49:10;;;;;;;36.75;23.25;;;;;;;8.96;87.94;99990.94;4174866;28;20709;-84
2022/03/18 06:51:13;;;;;;;41.07;26.27;;;;;;;8.97;87.67;99994.38;4177772;28;20233;-86
2022/03/18 06:53:17;;;;;;;40.97;25.10;;;;;;;8.97;88.07;99997.81;4165528;28;20624;-87
2022/03/18 06:55:20;;;;;;;36.97;24.67;;;;;;;9.07;88.08;100001.84;4170815;28;20627;-86
2022/03/18 06:57:23;;;;;;;41.00;25.50;;;;;;;9.10;87.49;100006.97;4184158;28;20782;-86
2022/03/18 06:59:26;;;;;;;41.53;26.80;;;;;;;9.16;87.13;100006.78;4176633;28;20625;-86
2022/03/18 07:01:29;;;;;;;51.67;31.30;;;;;;;9.16;87.44;100009.38;4163149;28;20626;-86
2022/03/18 07:03:33;;;;;;;45.30;26.50;;;;;;;9.17;87.06;100018.91;4161076;28;20998;-86
2022/03/18 07:05:38;;;;;;;53.20;31.13;;;;;;;9.16;86.86;100013.75;4164777;28;20687;-87
2022/03/18 07:07:41;;;;;;;42.87;27.50;;;;;;;9.21;86.98;100010.06;4175959;28;20210;-88
2022/03/18 07:09:45;;;;;;;36.93;25.30;;;;;;;9.26;86.75;100016.00;4175418;28;21223;-87
2022/03/18 07:11:48;;;;;;;44.20;27.43;;;;;;;9.35;86.51;100015.69;4173959;28;20637;-90
2022/03/18 07:13:51;;;;;;;41.70;27.10;;;;;;;9.39;86.41;100025.94;4178607;28;20673;-84
2022/03/18 07:15:54;;;;;;;43.90;26.93;;;;;;;9.44;86.15;100023.19;4178273;28;20685;-84
2022/03/18 07:17:59;;;;;;;43.07;30.47;;;;;;;9.45;86.13;100025.72;4161683;28;20733;-84
2022/03/18 07:20:02;;;;;;;44.73;28.00;;;;;;;9.43;85.79;100029.31;4178044;28;20661;-84
2022/03/18 07:22:07;;;;;;;41.60;26.90;;;;;;;9.44;85.54;100031.88;4178435;28;20645;-84
2022/03/18 07:24:10;;;;;;;46.27;27.60;;;;;;;9.38;85.31;100029.47;4195129;28;20632;-84
2022/03/18 07:26:13;;;;;;;53.57;32.30;;;;;;;9.48;85.49;100048.22;4173507;28;20625;-85
2022/03/18 07:28:17;;;;;;;50.30;27.97;;;;;;;9.49;85.36;100034.31;4180822;28;20740;-84
2022/03/18 07:30:20;;;;;;;41.67;25.53;;;;;;;9.53;85.61;100038.50;4172015;28;20622;-84
2022/03/18 07:32:24;;;;;;;43.10;27.90;;;;;;;9.59;85.31;100044.38;4175642;28;20719;-84
2022/03/18 07:34:27;;;;;;;46.50;27.13;;;;;;;9.64;84.42;100041.63;4158632;28;20637;-84
2022/03/18 07:36:30;;;;;;;41.70;28.10;;;;;;;9.68;84.72;100049.28;4194588;28;20652;-85
2022/03/18 07:38:35;;;;;;;44.87;29.00;;;;;;;9.71;84.57;100048.31;4179447;28;20618;-83
2022/03/18 07:40:38;;;;;;;49.30;28.90;;;;;;;9.72;84.81;100045.66;4180222;28;20633;-85
2022/03/18 07:42:43;;;;;;;46.30;28.30;;;;;;;9.81;85.27;100045.34;4162362;28;20656;-85
2022/03/18 07:44:46;;;;;;;39.80;26.10;;;;;;;9.79;83.63;100039.34;4179302;28;20659;-85
2022/03/18 07:46:49;;;;;;;44.17;28.93;;;;;;;9.62;83.47;100049.50;4179391;28;20780;-86
2022/03/18 07:48:52;;;;;;;40.90;25.90;;;;;;;9.66;83.65;100052.84;4180491;28;20755;-87
2022/03/18 07:50:56;;;;;;;38.53;25.37;;;;;;;9.72;84.04;100055.25;4176546;28;20625;-87
2022/03/18 07:53:01;;;;;;;38.00;25.07;;;;;;;9.72;84.01;100055.25;4157905;28;20630;-85
2022/03/18 07:55:06;;;;;;;43.30;25.00;;;;;;;9.66;83.47;100056.28;4166459;28;20632;-84
2022/03/18 07:57:09;;;;;;;40.33;26.67;;;;;;;9.51;84.15;100062.00;4174043;28;21287;-84
2022/03/18 07:59:12;;;;;;;39.73;25.40;;;;;;;9.49;84.68;100060.38;4148993;28;20664;-83
2022/03/18 08:01:16;;;;;;;40.87;26.30;;;;;;;9.51;84.49;100059.38;4176012;28;20636;-84
2022/03/18 08:03:19;;;;;;;35.70;22.87;;;;;;;9.50;84.15;100075.94;4172258;28;20670;-87
2022/03/18 08:05:23;;;;;;;39.70;24.47;;;;;;;9.50;84.50;100078.53;4160836;28;20637;-84
2022/03/18 08:07:33;;;;;;;36.00;22.97;;;;;;;9.49;83.92;100074.22;4168525;28;20638;-84
2022/03/18 08:09:36;;;;;;;36.93;23.30;;;;;;;9.47;84.24;100072.56;4186562;28;21268;-84
2022/03/18 08:11:41;;;;;;;32.77;22.33;;;;;;;9.52;83.83;100070.69;4183587;28;21191;-84
2022/03/18 08:13:45;;;;;;;35.80;23.17;;;;;;;9.54;84.91;100082.72;4179860;28;21213;-84
2022/03/18 08:15:50;;;;;;;39.10;23.73;;;;;;;9.62;84.51;100085.97;4177900;28;20620;-84
2022/03/18 08:17:56;;;;;;;38.37;22.30;;;;;;;9.66;83.19;100068.47;4175837;28;20230;-84
2022/03/18 08:19:59;;;;;;;34.90;22.80;;;;;;;9.68;83.52;100074.47;4189374;28;20696;-84
2022/03/18 08:22:04;;;;;;;38.17;21.77;;;;;;;9.72;82.72;100082.13;4157837;28;20669;-84
2022/03/18 08:24:07;;;;;;;32.93;21.77;;;;;;;9.77;83.15;100088.03;4174623;28;21253;-84
2022/03/18 08:26:10;;;;;;;35.90;22.73;;;;;;;9.80;83.30;100090.53;4161318;28;20634;-84
2022/03/18 08:28:15;;;;;;;32.30;21.13;;;;;;;9.86;82.70;100090.34;4177020;28;21444;-84
2022/03/18 08:30:19;;;;;;;32.50;21.23;;;;;;;9.91;82.39;100097.09;4175587;28;20740;-84
2022/03/18 08:32:22;;;;;;;35.50;22.97;;;;;;;9.96;82.95;100091.78;4171758;28;20625;-84
2022/03/18 08:34:25;;;;;;;30.20;20.23;;;;;;;10.04;82.17;100102.78;4157568;28;21204;-83
2022/03/18 08:36:28;;;;;;;33.03;21.13;;;;;;;9.93;81.14;100094.44;4178652;28;20648;-83
2022/03/18 08:38:31;;;;;;;34.00;21.50;;;;;;;9.81;81.41;100101.84;4175636;28;20675;-83
2022/03/18 08:40:36;;;;;;;36.30;21.67;;;;;;;9.83;82.25;100106.06;4172799;28;20631;-84
2022/03/18 08:42:39;;;;;;;32.80;20.97;;;;;;;9.84;81.83;100102.56;4172399;28;20633;-84
2022/03/18 08:44:44;;;;;;;37.40;22.70;;;;;;;9.73;81.38;100104.69;4174960;28;20636;-83
2022/03/18 08:46:47;;;;;;;34.97;22.47;;;;;;;9.82;81.54;100106.13;4171676;28;20731;-83
2022/03/18 08:48:50;;;;;;;36.53;22.00;;;;;;;9.88;81.65;100118.06;4158717;28;20639;-83
2022/03/18 08:50:53;;;;;;;41.67;22.85;;;;;;;9.98;82.00;100110.81;4160772;28;20636;-84
2022/03/18 08:52:57;;;;;;;39.50;22.87;;;;;;;10.01;80.86;100111.59;4177713;28;20256;-83
2022/03/18 08:55:00;;;;;;;38.42;23.00;;;;;;;9.93;80.63;100116.19;4187160;28;20727;-84
2022/03/18 08:57:04;;;;;;;36.57;22.50;;;;;;;10.08;82.02;100114.81;4186718;28;20199;-84
2022/03/18 08:59:09;;;;;;;40.07;25.00;;;;;;;10.19;81.66;100121.34;4177891;28;20664;-84
2022/03/18 09:01:14;;;;;;;35.00;22.60;;;;;;;10.17;80.26;100127.53;4157383;28;20665;-84
2022/03/18 09:03:18;;;;;;;37.10;22.90;;;;;;;9.89;79.92;100132.81;4175244;28;20744;-83
2022/03/18 09:05:21;;;;;;;39.03;22.87;;;;;;;9.92;80.94;100137.91;4161029;28;20629;-84
2022/03/18 09:07:25;;;;;;;37.17;23.60;;;;;;;9.90;80.74;100131.03;4176031;28;20642;-84
2022/03/18 09:09:28;;;;;;;37.67;23.67;;;;;;;9.87;80.34;100138.97;4162955;28;20781;-85
2022/03/18 09:11:31;;;;;;;36.00;23.57;;;;;;;9.89;81.26;100132.81;4189447;28;20639;-82
2022/03/18 09:13:35;;;;;;;39.22;23.33;;;;;;;9.97;80.94;100130.81;4167926;28;20639;-82
2022/03/18 09:15:38;;;;;;;40.90;24.90;;;;;;;10.03;80.38;100142.81;4174788;28;20216;-82
2022/03/18 09:17:43;;;;;;;44.20;25.87;;;;;;;10.04;79.94;100137.53;4174030;28;20636;-82
2022/03/18 09:19:46;;;;;;;37.80;24.00;;;;;;;9.96;79.59;100149.97;4187773;28;20892;-82
2022/03/18 09:21:49;;;;;;;43.90;25.73;;;;;;;9.93;79.72;100142.25;4177210;28;21356;-82
2022/03/18 09:23:52;;;;;;;39.70;23.70;;;;;;;9.98;80.34;100144.69;4174127;28;20647;-84
2022/03/18 09:25:56;;;;;;;36.13;22.70;;;;;;;10.14;80.48;100148.50;4174592;28;21191;-83
2022/03/18 09:28:00;;;;;;;36.47;24.27;;;;;;;10.14;79.81;100149.34;4174406;28;20634;-86
2022/03/18 09:30:23;;;;;;;39.83;25.33;;;;;;;10.19;79.63;100152.63;4176182;28;22068;-85
2022/03/18 09:32:26;;;;;;;40.07;24.47;;;;;;;10.22;80.69;100152.53;4172215;28;20666;-85
2022/03/18 09:34:31;;;;;;;39.20;24.90;;;;;;;10.18;78.39;100161.38;4159064;28;20637;-85
2022/03/18 09:36:34;;;;;;;36.90;22.50;;;;;;;10.28;79.41;100165.38;4158416;28;20629;-85
2022/03/18 09:38:37;;;;;;;41.22;24.60;;;;;;;10.15;78.98;100144.97;4170973;28;20640;-85
2022/03/18 09:40:41;;;;;;;37.97;24.80;;;;;;;10.28;79.57;100151.50;4172293;28;20568;-85
2022/03/18 09:43:06;;;;;;;42.57;24.00;;;;;;;10.34;79.06;100158.22;4158494;28;20649;-85